Time;durP1;ratioP1;P1;durP2;ratioP2;P2;SDS_P1;SDS_P2;PMS_P1;PMS_P2;Temp;Humidity;BMP_temperature;BMP_pressure;BME280_temperature;BME280_humidity;BME280_pressure;Samples;Min_cycle;Max_cycle;Signal;HPM_P1;HPM_P2
2021/06/09 00:01:53;;;;;;;12.25;8.70;;;18.20;99.90;;;;;;5032091;28;20033;-69
2021/06/09 00:04:20;;;;;;;10.30;8.45;;;18.10;99.90;;;;;;5032079;28;20034;-69
2021/06/09 00:06:45;;;;;;;11.80;8.13;;;18.00;99.90;;;;;;5032041;28;20121;-70
2021/06/09 00:09:11;;;;;;;13.52;8.57;;;18.10;99.90;;;;;;5032175;28;20445;-69
2021/06/09 00:11:37;;;;;;;11.98;8.50;;;18.10;99.90;;;;;;5032223;28;20030;-70
2021/06/09 00:14:05;;;;;;;16.52;8.35;;;18.20;99.90;;;;;;5030864;28;20032;-69
2021/06/09 00:16:32;;;;;;;12.20;7.90;;;18.20;99.90;;;;;;5032064;28;20431;-70
2021/06/09 00:18:58;;;;;;;14.38;8.18;;;18.10;99.90;;;;;;5031113;28;20390;-69
2021/06/09 00:21:24;;;;;;;10.52;8.45;;;18.20;99.90;;;;;;5032171;28;20025;-69
2021/06/09 00:23:50;;;;;;;15.13;8.70;;;18.10;99.90;;;;;;5031011;28;20026;-70
2021/06/09 00:26:18;;;;;;;8.93;7.05;;;18.00;99.90;;;;;;5030676;28;20034;-69
2021/06/09 00:28:45;;;;;;;10.52;8.52;;;18.00;99.90;;;;;;5014279;28;20458;-68
2021/06/09 00:31:11;;;;;;;11.32;8.32;;;17.80;99.90;;;;;;5030896;28;20040;-68
2021/06/09 00:33:38;;;;;;;11.90;8.95;;;17.80;99.90;;;;;;5032239;28;20033;-69
2021/06/09 00:36:05;;;;;;;11.10;9.02;;;17.70;99.90;;;;;;5014183;28;20033;-69
2021/06/09 00:38:31;;;;;;;11.45;8.20;;;17.80;99.90;;;;;;5031715;28;20591;-69
2021/06/09 00:40:58;;;;;;;10.50;8.00;;;17.90;99.90;;;;;;5014135;28;20060;-70
2021/06/09 00:43:31;;;;;;;12.25;8.73;;;17.80;99.90;;;;;;5031734;28;20095;-70
2021/06/09 00:46:02;;;;;;;12.13;8.05;;;17.80;99.90;;;;;;5031831;28;20060;-70
2021/06/09 00:48:30;;;;;;;11.82;8.50;;;17.80;99.90;;;;;;5030559;28;20029;-69
2021/06/09 00:51:14;;;;;;;14.93;8.48;;;18.00;99.90;;;;;;5031850;28;20040;-70
2021/06/09 00:53:47;;;;;;;14.52;7.55;;;18.00;99.90;;;;;;5030963;28;20029;-70
2021/06/09 00:56:13;;;;;;;10.70;7.78;;;17.90;99.90;;;;;;5030494;28;20041;-70
2021/06/09 00:58:42;;;;;;;10.55;8.05;;;17.90;99.90;;;;;;5032508;28;20032;-70
2021/06/09 01:01:10;;;;;;;12.05;8.32;;;17.90;99.90;;;;;;5035650;28;20032;-70
2021/06/09 01:03:36;;;;;;;12.48;8.20;;;18.00;99.90;;;;;;5034046;28;20033;-69
2021/06/09 01:06:04;;;;;;;10.27;8.13;;;17.90;99.90;;;;;;5035637;28;20033;-70
2021/06/09 01:08:36;;;;;;;12.02;9.18;;;17.90;99.90;;;;;;5017651;28;20029;-70
2021/06/09 01:11:07;;;;;;;12.18;9.10;;;17.90;99.90;;;;;;5035383;28;20030;-70
2021/06/09 01:13:33;;;;;;;12.10;8.65;;;17.90;99.90;;;;;;5033924;28;20103;-70
2021/06/09 01:16:00;;;;;;;10.95;7.68;;;18.00;99.90;;;;;;5033987;28;20045;-70
2021/06/09 01:18:26;;;;;;;12.40;7.70;;;18.00;99.90;;;;;;5033977;28;20029;-70
2021/06/09 01:20:53;;;;;;;14.25;8.70;;;18.10;99.90;;;;;;5035049;28;20546;-69
2021/06/09 01:23:20;;;;;;;14.50;8.48;;;18.10;99.90;;;;;;5034772;28;20104;-69
2021/06/09 01:25:49;;;;;;;11.18;8.20;;;18.10;99.90;;;;;;5035102;28;20033;-70
2021/06/09 01:28:16;;;;;;;11.70;8.93;;;17.90;99.90;;;;;;5033779;28;20116;-69
2021/06/09 01:30:42;;;;;;;16.15;9.13;;;17.90;99.90;;;;;;5034792;28;20053;-69
2021/06/09 01:33:08;;;;;;;14.43;8.90;;;17.90;99.90;;;;;;5035184;28;20425;-70
2021/06/09 01:35:35;;;;;;;12.77;8.07;;;17.90;99.90;;;;;;5033532;28;20060;-69
2021/06/09 01:38:02;;;;;;;15.90;8.95;;;18.00;99.90;;;;;;5033806;28;20112;-70
2021/06/09 01:40:29;;;;;;;16.00;9.13;;;18.10;99.90;;;;;;5033474;28;20041;-69
2021/06/09 01:42:57;;;;;;;13.93;9.57;;;18.10;99.90;;;;;;5017025;28;20108;-69
2021/06/09 01:45:28;;;;;;;11.38;8.75;;;18.10;99.90;;;;;;5034608;28;20037;-68
2021/06/09 01:47:55;;;;;;;15.85;9.20;;;17.90;99.90;;;;;;5034614;28;20038;-69
2021/06/09 01:50:23;;;;;;;15.13;9.80;;;17.90;99.90;;;;;;5033509;28;20045;-69
2021/06/09 01:52:51;;;;;;;14.10;9.88;;;17.70;99.90;;;;;;5034430;28;20034;-68
2021/06/09 01:55:20;;;;;;;23.20;10.15;;;17.50;99.90;;;;;;5033181;28;20031;-68
2021/06/09 01:57:46;;;;;;;13.65;10.10;;;17.50;99.90;;;;;;5034590;28;20367;-69
2021/06/09 02:00:23;;;;;;;13.18;10.35;;;17.60;99.90;;;;;;5033194;28;20041;-69
2021/06/09 02:02:49;;;;;;;15.02;10.90;;;17.70;99.90;;;;;;5034371;28;20159;-69
2021/06/09 02:05:14;;;;;;;14.10;10.70;;;17.70;99.90;;;;;;5033243;28;20075;-69
2021/06/09 02:07:44;;;;;;;17.02;11.65;;;17.60;99.90;;;;;;5033068;28;20033;-70
2021/06/09 02:10:15;;;;;;;12.90;10.30;;;17.60;99.90;;;;;;5033240;28;20132;-70
2021/06/09 02:12:46;;;;;;;13.57;9.10;;;17.70;99.90;;;;;;5032553;28;20030;-70
2021/06/09 02:15:13;;;;;;;13.30;9.32;;;17.70;99.90;;;;;;5033171;28;20021;-70
2021/06/09 02:17:43;;;;;;;14.88;9.50;;;17.80;99.90;;;;;;5032599;28;20037;-69
2021/06/09 02:20:10;;;;;;;11.93;9.18;;;17.50;99.90;;;;;;5034147;28;20557;-68
2021/06/09 02:22:37;;;;;;;14.52;9.77;;;17.40;99.90;;;;;;5033926;28;20104;-69
2021/06/09 02:25:07;;;;;;;14.55;9.82;;;17.30;99.90;;;;;;5034085;28;20031;-69
2021/06/09 02:27:35;;;;;;;11.73;9.17;;;17.50;99.90;;;;;;5032292;28;20045;-69
2021/06/09 02:30:05;;;;;;;14.73;10.40;;;17.50;99.90;;;;;;5032410;28;20295;-69
2021/06/09 02:32:31;;;;;;;10.05;8.50;;;17.60;99.90;;;;;;5032203;28;20038;-69
2021/06/09 02:34:57;;;;;;;12.65;8.30;;;17.60;99.90;;;;;;5033626;28;20478;-68
2021/06/09 02:37:23;;;;;;;14.93;9.80;;;17.50;99.90;;;;;;5032255;28;20033;-69
2021/06/09 02:39:49;;;;;;;14.77;9.82;;;17.20;99.90;;;;;;5033530;28;20044;-69
2021/06/09 02:42:20;;;;;;;14.27;10.45;;;17.20;99.90;;;;;;5032334;28;20034;-69
2021/06/09 02:44:47;;;;;;;13.18;10.57;;;17.10;99.90;;;;;;5033476;28;20486;-69
2021/06/09 02:47:17;;;;;;;11.73;9.98;;;17.30;99.90;;;;;;5032194;28;20099;-69
2021/06/09 02:49:45;;;;;;;14.10;9.75;;;17.40;99.90;;;;;;5015824;28;20037;-68
2021/06/09 02:53:09;;;;;;;13.07;9.55;;;17.50;99.90;;;;;;5032383;28;20029;-69
2021/06/09 02:56:19;;;;;;;16.80;10.85;;;17.40;99.90;;;;;;5017097;28;20490;-69
2021/06/09 02:59:31;;;;;;;13.63;9.90;;;17.30;99.90;;;;;;5033147;28;20509;-69
2021/06/09 03:02:29;;;;;;;12.45;9.80;;;17.40;99.90;;;;;;5032580;28;20355;-69
2021/06/09 03:05:03;;;;;;;11.90;9.38;;;17.50;99.90;;;;;;5032119;28;20082;-69
2021/06/09 03:07:35;;;;;;;13.82;9.73;;;17.50;99.90;;;;;;5031888;28;20033;-69
2021/06/09 03:10:25;;;;;;;12.35;9.25;;;17.30;99.90;;;;;;5033037;28;20619;-68
2021/06/09 03:13:07;;;;;;;19.55;10.13;;;17.20;99.90;;;;;;5032959;28;20622;-68
2021/06/09 03:15:58;;;;;;;13.38;10.18;;;17.30;99.90;;;;;;5033058;28;20049;-69
2021/06/09 03:18:41;;;;;;;17.65;11.00;;;17.10;99.90;;;;;;5031638;28;20087;-69
2021/06/09 03:21:40;;;;;;;16.38;11.07;;;17.20;99.90;;;;;;5031635;28;20034;-69
2021/06/09 03:24:23;;;;;;;13.82;10.02;;;17.20;99.90;;;;;;5032011;28;20038;-69
2021/06/09 03:27:01;;;;;;;12.80;8.98;;;17.30;99.90;;;;;;5031590;28;20036;-70
2021/06/09 03:29:44;;;;;;;13.65;9.02;;;17.20;99.90;;;;;;5031377;28;20045;-69
2021/06/09 03:32:43;;;;;;;13.18;8.93;;;17.00;99.90;;;;;;5032876;28;20087;-70
2021/06/09 03:35:23;;;;;;;11.73;9.07;;;16.90;99.90;;;;;;5031503;28;20101;-70
2021/06/09 03:37:54;;;;;;;13.87;9.33;;;16.90;99.90;;;;;;5015925;28;20037;-70
2021/06/09 03:40:29;;;;;;;13.98;10.30;;;17.00;99.90;;;;;;5032557;28;20478;-70
2021/06/09 03:43:02;;;;;;;15.63;10.23;;;17.00;99.90;;;;;;5031279;28;20486;-70
2021/06/09 03:45:34;;;;;;;13.13;9.45;;;17.00;99.90;;;;;;5014814;28;20037;-69
2021/06/09 03:48:01;;;;;;;11.32;9.35;;;17.00;99.90;;;;;;5031073;28;20128;-69
2021/06/09 03:50:28;;;;;;;12.70;9.57;;;17.00;99.90;;;;;;5029539;28;20029;-73
2021/06/09 03:53:02;;;;;;;12.18;9.80;;;17.10;99.90;;;;;;5030620;28;20049;-69
2021/06/09 03:55:33;;;;;;;13.07;10.25;;;17.00;99.90;;;;;;5015519;28;20113;-55
2021/06/09 03:58:01;;;;;;;13.75;9.75;;;17.10;99.90;;;;;;5030276;28;20667;-57
2021/06/09 04:00:28;;;;;;;18.20;10.70;;;17.00;99.90;;;;;;5032326;28;20068;-55
2021/06/09 04:02:56;;;;;;;14.07;9.82;;;17.00;99.90;;;;;;5032465;28;20099;-55
2021/06/09 04:05:26;;;;;;;13.57;9.57;;;17.10;99.90;;;;;;5033620;28;20032;-54
2021/06/09 04:07:56;;;;;;;15.32;10.75;;;17.10;99.90;;;;;;5015183;28;20042;-54
2021/06/09 04:10:23;;;;;;;17.83;10.18;;;17.00;99.90;;;;;;5030986;28;20079;-56
2021/06/09 04:12:49;;;;;;;12.52;10.25;;;17.00;99.90;;;;;;5030975;28;20037;-55
2021/06/09 04:15:17;;;;;;;17.55;11.73;;;17.10;99.90;;;;;;5030747;28;20627;-54
2021/06/09 04:17:45;;;;;;;17.20;12.30;;;17.00;99.90;;;;;;5032040;28;20040;-52
2021/06/09 04:20:12;;;;;;;16.58;11.38;;;17.00;99.90;;;;;;5031004;28;20053;-55
2021/06/09 04:22:38;;;;;;;13.60;11.20;;;17.20;99.90;;;;;;5014322;28;20470;-54
2021/06/09 04:25:07;;;;;;;14.95;10.98;;;17.20;99.90;;;;;;5031037;28;20053;-53
2021/06/09 04:27:39;;;;;;;14.70;11.00;;;17.40;99.90;;;;;;5036401;28;20380;-53
2021/06/09 04:30:06;;;;;;;31.30;19.33;;;17.30;99.90;;;;;;5051672;28;20049;-51
2021/06/09 04:33:00;;;;;;;63.85;37.80;;;17.50;99.90;;;;;;5051933;28;20037;-51
2021/06/09 04:35:35;;;;;;;22.88;14.50;;;17.70;99.90;;;;;;5054576;28;20025;-55
2021/06/09 04:38:02;;;;;;;22.13;12.65;;;17.70;99.90;;;;;;5055752;28;20037;-54
2021/06/09 04:40:28;;;;;;;20.27;12.73;;;17.60;99.90;;;;;;5054668;28;20029;-55
2021/06/09 04:42:57;;;;;;;19.00;13.45;;;17.60;99.90;;;;;;5055814;28;20088;-55
2021/06/09 04:45:25;;;;;;;15.40;12.02;;;17.60;99.90;;;;;;5055821;28;20036;-50
2021/06/09 04:47:52;;;;;;;16.05;11.93;;;17.50;99.90;;;;;;5055721;28;20159;-53
2021/06/09 04:50:25;;;;;;;18.42;12.55;;;17.50;99.90;;;;;;5055613;28;20040;-55
2021/06/09 04:52:53;;;;;;;15.38;11.93;;;17.50;99.90;;;;;;5055932;28;20082;-53
2021/06/09 04:55:20;;;;;;;16.05;12.20;;;17.40;99.90;;;;;;5055679;28;20493;-50
2021/06/09 04:57:47;;;;;;;16.13;12.00;;;17.40;99.90;;;;;;5049107;28;20037;-67
2021/06/09 05:00:15;;;;;;;16.63;12.73;;;17.20;99.90;;;;;;5017599;28;20603;-65
2021/06/09 05:02:43;;;;;;;16.25;12.15;;;17.30;99.90;;;;;;5035476;28;20040;-65
2021/06/09 05:05:10;;;;;;;17.05;13.00;;;17.40;99.90;;;;;;5035438;28;20048;-65
2021/06/09 05:07:36;;;;;;;19.30;12.65;;;17.50;99.90;;;;;;5035211;28;20060;-65
2021/06/09 05:10:03;;;;;;;16.02;11.77;;;17.70;99.90;;;;;;5035568;28;20056;-65
2021/06/09 05:12:35;;;;;;;19.15;13.20;;;17.80;99.90;;;;;;5017534;28;20112;-65
2021/06/09 05:15:08;;;;;;;20.92;12.38;;;17.70;99.90;;;;;;5017712;28;20037;-66
2021/06/09 05:17:49;;;;;;;17.95;12.70;;;17.60;99.90;;;;;;5034031;28;20045;-66
2021/06/09 05:20:26;;;;;;;20.07;12.90;;;17.90;99.90;;;;;;5033675;28;20033;-66
2021/06/09 05:23:24;;;;;;;16.77;13.52;;;18.20;99.90;;;;;;5035208;28;20829;-66
2021/06/09 05:25:51;;;;;;;18.88;13.95;;;18.30;99.90;;;;;;5031648;28;20049;-66
2021/06/09 05:28:19;;;;;;;18.30;13.57;;;18.60;99.90;;;;;;5044425;28;20107;-65
2021/06/09 05:30:46;;;;;;;18.60;14.30;;;18.80;99.90;;;;;;5053130;28;20045;-66
2021/06/09 05:33:13;;;;;;;19.08;13.70;;;18.80;99.90;;;;;;5053556;28;20044;-65
2021/06/09 05:35:39;;;;;;;21.10;13.95;;;18.90;99.90;;;;;;5053397;28;20040;-65
2021/06/09 05:38:05;;;;;;;22.83;15.38;;;18.90;99.90;;;;;;5053524;28;20028;-65
2021/06/09 05:40:31;;;;;;;19.65;14.90;;;19.00;99.90;;;;;;5053292;28;20031;-65
2021/06/09 05:42:57;;;;;;;18.73;14.88;;;19.20;99.90;;;;;;5053251;28;20074;-65
2021/06/09 05:45:33;;;;;;;21.33;15.23;;;19.40;99.90;;;;;;5053147;28;20029;-65
2021/06/09 05:47:59;;;;;;;24.25;16.20;;;19.40;99.90;;;;;;5053056;28;20606;-65
2021/06/09 05:50:30;;;;;;;21.40;16.40;;;19.30;99.90;;;;;;5054224;28;20033;-65
2021/06/09 05:52:58;;;;;;;18.63;14.57;;;19.40;99.90;;;;;;5052997;28;20029;-65
2021/06/09 05:55:27;;;;;;;25.80;16.00;;;19.30;99.90;;;;;;5054524;28;20037;-65
2021/06/09 05:57:55;;;;;;;19.90;14.23;;;19.20;99.90;;;;;;5046921;28;20064;-65
2021/06/09 06:00:25;;;;;;;23.52;15.43;;;19.20;99.90;;;;;;5034361;28;20042;-65
2021/06/09 06:02:52;;;;;;;24.38;15.32;;;19.40;99.90;;;;;;5035606;28;20501;-65
2021/06/09 06:05:20;;;;;;;20.35;15.35;;;19.30;99.90;;;;;;5034418;28;20042;-66
2021/06/09 06:07:47;;;;;;;20.70;14.88;;;19.30;99.90;;;;;;5032716;28;20075;-65
2021/06/09 06:10:14;;;;;;;21.65;15.18;;;19.30;99.90;;;;;;5016420;28;20040;-66
2021/06/09 06:12:42;;;;;;;23.95;14.45;;;19.30;99.90;;;;;;5032854;28;20026;-65
2021/06/09 06:15:12;;;;;;;20.15;14.98;;;19.40;99.90;;;;;;5033830;28;20034;-65
2021/06/09 06:17:44;;;;;;;23.33;14.13;;;19.50;99.90;;;;;;5032569;28;20029;-66
2021/06/09 06:20:18;;;;;;;21.73;14.82;;;19.60;99.90;;;;;;5033944;28;20034;-65
2021/06/09 06:22:47;;;;;;;19.83;15.38;;;19.60;99.90;;;;;;5033782;28;20034;-64
2021/06/09 06:25:16;;;;;;;21.23;14.07;;;19.70;99.90;;;;;;5033948;28;20029;-64
2021/06/09 06:27:44;;;;;;;19.60;14.77;;;19.50;99.90;;;;;;5038922;28;20037;-64
2021/06/09 06:30:12;;;;;;;23.33;16.38;;;19.60;99.90;;;;;;5053606;28;20047;-64
2021/06/09 06:32:39;;;;;;;22.27;14.70;;;19.70;99.90;;;;;;5053577;28;20130;-65
2021/06/09 06:35:07;;;;;;;20.88;15.10;;;19.70;99.90;;;;;;5052241;28;20029;-65
2021/06/09 06:37:33;;;;;;;20.27;14.63;;;19.80;99.90;;;;;;5053425;28;20496;-65
2021/06/09 06:39:59;;;;;;;18.27;14.00;;;19.90;99.90;;;;;;5052129;28;20381;-65
2021/06/09 06:42:25;;;;;;;21.48;14.45;;;19.60;99.90;;;;;;5052156;28;20032;-65
2021/06/09 06:44:51;;;;;;;21.35;14.65;;;19.80;99.90;;;;;;5053146;28;20040;-65
2021/06/09 06:47:19;;;;;;;23.65;15.15;;;19.60;99.90;;;;;;5052254;28;20120;-65
2021/06/09 06:49:48;;;;;;;20.35;14.77;;;19.80;99.90;;;;;;5053030;28;20048;-65
2021/06/09 06:52:14;;;;;;;24.02;15.90;;;19.90;99.90;;;;;;5053240;28;20087;-65
2021/06/09 06:54:39;;;;;;;22.90;15.15;;;19.70;99.90;;;;;;5051993;28;20029;-65
2021/06/09 06:57:06;;;;;;;23.98;15.60;;;19.80;99.90;;;;;;5050510;28;20469;-65
2021/06/09 06:59:32;;;;;;;22.15;14.50;;;20.10;99.90;;;;;;5031751;28;20065;-65
2021/06/09 07:01:58;;;;;;;22.38;15.38;;;20.00;99.90;;;;;;5031858;28;20070;-65
2021/06/09 07:04:26;;;;;;;23.75;14.60;;;20.30;99.90;;;;;;5032089;28;20120;-65
2021/06/09 07:06:53;;;;;;;23.77;14.57;;;20.30;99.90;;;;;;5031542;28;20044;-63
2021/06/09 07:09:21;;;;;;;20.73;13.50;;;20.30;99.90;;;;;;5033136;28;20029;-65
2021/06/09 07:11:50;;;;;;;20.77;15.20;;;20.50;99.90;;;;;;5032619;28;20051;-65
2021/06/09 07:14:16;;;;;;;19.00;14.25;;;20.60;99.90;;;;;;5032785;28;20052;-65
2021/06/09 07:16:44;;;;;;;20.45;14.27;;;20.70;99.90;;;;;;5031615;28;20039;-65
2021/06/09 07:19:11;;;;;;;22.15;13.90;;;20.70;99.90;;;;;;5032999;28;20025;-65
2021/06/09 07:21:39;;;;;;;18.13;13.90;;;20.80;99.90;;;;;;5032604;28;20041;-65
2021/06/09 07:24:06;;;;;;;20.50;13.82;;;21.00;99.90;;;;;;5031443;28;20025;-65
2021/06/09 07:26:46;;;;;;;20.98;14.55;;;21.20;99.90;;;;;;5031359;28;20151;-65
2021/06/09 07:29:24;;;;;;;16.27;13.13;;;21.10;99.90;;;;;;5048979;28;20052;-65
2021/06/09 07:31:51;;;;;;;16.02;11.98;;;21.40;99.90;;;;;;5050906;28;20029;-65
2021/06/09 07:34:18;;;;;;;15.90;12.48;;;21.50;99.90;;;;;;5052765;28;20037;-65
2021/06/09 07:36:55;;;;;;;16.25;12.40;;;21.60;99.90;;;;;;5052435;28;20560;-65
2021/06/09 07:39:37;;;;;;;17.58;12.95;;;21.60;99.90;;;;;;5051319;28;20094;-65
2021/06/09 07:42:12;;;;;;;19.23;12.82;;;21.70;99.90;;;;;;5052377;28;20154;-65
2021/06/09 07:44:50;;;;;;;18.55;12.65;;;21.70;99.90;;;;;;5041986;28;20052;-66
2021/06/09 07:47:18;;;;;;;18.67;12.38;;;21.80;99.90;;;;;;5030725;28;20116;-64
2021/06/09 07:49:49;;;;;;;17.08;13.00;;;21.90;99.90;;;;;;5031325;28;20040;-65
2021/06/09 07:52:17;;;;;;;;;;;21.90;99.90;;;;;;5031000;28;20113;-64
2021/06/09 07:54:44;;;;;;;20.63;13.95;;;22.10;99.90;;;;;;5032159;28;19967;-65
2021/06/09 07:57:13;;;;;;;15.43;11.95;;;22.20;99.90;;;;;;5032424;28;20075;-64
2021/06/09 07:59:39;;;;;;;17.63;11.43;;;22.40;99.90;;;;;;5052019;28;20358;-64
2021/06/09 08:02:06;;;;;;;17.55;12.25;;;22.40;99.90;;;;;;5050661;28;20032;-65
2021/06/09 08:04:33;;;;;;;15.48;11.60;;;22.40;99.90;;;;;;5051131;28;20048;-64
2021/06/09 08:07:00;;;;;;;15.30;11.57;;;22.40;99.90;;;;;;5047579;28;20139;-65
2021/06/09 08:09:26;;;;;;;14.35;11.05;;;22.50;99.90;;;;;;5051143;28;20036;-65
2021/06/09 08:11:53;;;;;;;14.32;10.88;;;22.50;99.90;;;;;;5050753;28;20032;-64
2021/06/09 08:14:21;;;;;;;15.15;11.57;;;22.70;99.90;;;;;;5051614;28;20048;-64
2021/06/09 08:16:47;;;;;;;16.90;11.75;;;22.30;99.90;;;;;;5051962;28;20091;-65
2021/06/09 08:19:13;;;;;;;17.55;11.90;;;22.40;99.90;;;;;;5051913;28;20236;-64
2021/06/09 08:21:39;;;;;;;14.30;11.07;;;22.50;99.90;;;;;;5050735;28;20167;-65
2021/06/09 08:24:06;;;;;;;14.65;10.45;;;22.70;99.90;;;;;;5051753;28;20564;-64
2021/06/09 08:26:33;;;;;;;12.90;10.25;;;22.80;99.90;;;;;;5050898;28;20079;-65
2021/06/09 08:28:59;;;;;;;16.48;10.35;;;22.80;99.90;;;;;;5034975;28;20049;-65
2021/06/09 08:31:30;;;;;;;15.45;10.13;;;23.10;99.90;;;;;;5031694;28;20469;-65
2021/06/09 08:33:58;;;;;;;14.18;10.07;;;23.20;99.90;;;;;;5031845;28;20060;-65
2021/06/09 08:36:26;;;;;;;12.77;9.77;;;23.30;99.90;;;;;;5031787;28;20033;-65
2021/06/09 08:38:56;;;;;;;14.90;9.77;;;23.50;99.90;;;;;;5031398;28;20038;-65
2021/06/09 08:41:34;;;;;;;14.33;10.57;;;23.50;99.90;;;;;;5031705;28;20034;-64
2021/06/09 08:44:03;;;;;;;13.00;10.10;;;23.40;99.90;;;;;;5030471;28;20280;-65
2021/06/09 08:46:31;;;;;;;12.32;9.30;;;23.10;99.90;;;;;;5031714;28;20389;-65
2021/06/09 08:48:57;;;;;;;13.73;9.18;;;23.40;99.90;;;;;;5031617;28;20121;-65
2021/06/09 08:51:26;;;;;;;11.23;9.05;;;23.50;99.90;;;;;;5031379;28;20553;-65
2021/06/09 08:53:53;;;;;;;12.63;9.70;;;23.50;99.90;;;;;;5031338;28;20460;-65
2021/06/09 08:56:21;;;;;;;9.73;8.15;;;23.80;99.90;;;;;;5031533;28;20115;-65
2021/06/09 08:58:47;;;;;;;11.57;9.05;;;24.00;99.90;;;;;;5046256;28;20547;-65
2021/06/09 09:01:16;;;;;;;12.13;7.97;;;24.10;99.90;;;;;;5051692;28;20037;-66
2021/06/09 09:03:44;;;;;;;10.98;8.30;;;24.20;99.90;;;;;;5050381;28;20029;-65
2021/06/09 09:06:11;;;;;;;10.73;7.88;;;24.30;99.90;;;;;;5051568;28;20091;-64
2021/06/09 09:08:37;;;;;;;13.82;8.27;;;24.30;99.90;;;;;;5066920;28;20061;-64
2021/06/09 09:11:03;;;;;;;11.80;8.40;;;24.40;99.90;;;;;;5050029;28;20504;-65
2021/06/09 09:13:31;;;;;;;13.32;8.93;;;24.30;99.90;;;;;;5051046;28;20033;-65
2021/06/09 09:15:56;;;;;;;11.18;8.50;;;24.50;99.90;;;;;;5051395;28;20029;-65
2021/06/09 09:18:40;;;;;;;15.20;7.97;;;24.60;99.90;;;;;;5051464;28;20028;-65
2021/06/09 09:21:08;;;;;;;12.73;8.27;;;24.60;99.90;;;;;;5053841;28;20100;-65
2021/06/09 09:23:34;;;;;;;11.27;8.40;;;24.30;99.90;;;;;;5054587;28;20453;-64
2021/06/09 09:26:32;;;;;;;10.80;7.15;;;24.40;99.90;;;;;;5053384;28;20061;-65
2021/06/09 09:29:20;;;;;;;10.80;7.55;;;24.80;99.90;;;;;;5037939;28;20059;-65
2021/06/09 09:31:52;;;;;;;9.43;7.65;;;24.90;99.90;;;;;;5034889;28;20168;-65
2021/06/09 09:34:43;;;;;;;10.70;7.75;;;24.60;99.90;;;;;;5034993;28;20108;-65
2021/06/09 09:37:20;;;;;;;11.43;7.82;;;24.60;99.90;;;;;;5034334;28;20034;-65
2021/06/09 09:39:51;;;;;;;10.38;7.57;;;24.90;99.90;;;;;;5034362;28;20040;-65
2021/06/09 09:42:25;;;;;;;9.40;7.75;;;25.10;99.90;;;;;;5034761;28;20049;-64
2021/06/09 09:44:52;;;;;;;11.55;7.25;;;25.20;99.90;;;;;;5034302;28;20026;-63
2021/06/09 09:47:23;;;;;;;11.45;8.25;;;25.40;99.90;;;;;;5034750;28;20109;-64
2021/06/09 09:49:51;;;;;;;10.73;7.78;;;25.00;99.90;;;;;;5034584;28;20117;-64
2021/06/09 09:52:17;;;;;;;13.02;7.88;;;25.00;99.90;;;;;;5033427;28;20485;-64
2021/06/09 09:54:45;;;;;;;8.50;7.30;;;24.90;99.90;;;;;;5016828;28;20053;-65
2021/06/09 09:57:14;;;;;;;11.93;7.50;;;25.20;99.90;;;;;;5035649;28;20038;-64
2021/06/09 09:59:41;;;;;;;13.25;6.90;;;25.20;99.90;;;;;;5054186;28;20535;-65
2021/06/09 10:02:17;;;;;;;10.13;7.13;;;25.30;99.90;;;;;;5054175;28;20041;-65
2021/06/09 10:04:51;;;;;;;12.98;8.00;;;25.50;99.90;;;;;;5054036;28;20021;-65
2021/06/09 10:07:17;;;;;;;9.90;7.03;;;25.80;99.90;;;;;;5053001;28;20044;-65
2021/06/09 10:09:46;;;;;;;10.05;7.18;;;25.80;99.90;;;;;;5053758;28;20388;-65
2021/06/09 10:12:16;;;;;;;11.13;8.05;;;26.00;99.90;;;;;;5055598;28;20084;-65
2021/06/09 10:14:49;;;;;;;11.65;7.50;;;26.30;99.90;;;;;;5033979;28;20033;-65
2021/06/09 10:17:22;;;;;;;9.77;6.55;;;26.30;99.90;;;;;;5033866;28;20095;-66
2021/06/09 10:19:57;;;;;;;10.77;7.07;;;26.10;99.90;;;;;;5033521;28;20026;-69
2021/06/09 10:22:34;;;;;;;11.68;7.18;;;26.20;99.90;;;;;;5033809;28;20061;-68
2021/06/09 10:25:11;;;;;;;12.15;6.93;;;26.40;99.90;;;;;;5033560;28;20053;-68
2021/06/09 10:27:48;;;;;;;9.70;6.28;;;26.70;99.90;;;;;;5038825;28;20033;-69
2021/06/09 10:30:16;;;;;;;11.23;6.38;;;26.80;99.90;;;;;;5053159;28;20460;-68
2021/06/09 10:32:44;;;;;;;8.27;6.35;;;27.10;99.90;;;;;;5052743;28;20041;-66
2021/06/09 10:35:10;;;;;;;7.47;6.15;;;27.20;99.90;;;;;;5053230;28;20025;-67
2021/06/09 10:37:37;;;;;;;8.93;6.53;;;27.40;99.90;;;;;;5052249;28;20033;-71
2021/06/09 10:40:05;;;;;;;7.15;6.00;;;27.50;99.90;;;;;;5052269;28;20090;-68
2021/06/09 10:42:32;;;;;;;9.25;6.47;;;27.60;99.90;;;;;;5053455;28;20568;-69
2021/06/09 10:45:00;;;;;;;8.45;6.80;;;27.80;99.90;;;;;;5051879;28;20032;-70
2021/06/09 10:47:34;;;;;;;8.18;6.03;;;27.90;99.40;;;;;;5053519;28;20385;-58
2021/06/09 10:50:05;;;;;;;11.13;6.32;;;28.10;99.40;;;;;;5053277;28;20075;-65
2021/06/09 10:52:31;;;;;;;7.78;5.78;;;27.10;99.90;;;;;;5053094;28;20040;-65
2021/06/09 10:54:58;;;;;;;8.98;5.72;;;27.50;98.70;;;;;;5051879;28;20061;-66
2021/06/09 10:57:25;;;;;;;8.02;5.85;;;27.60;97.70;;;;;;5048722;28;20044;-67
2021/06/09 10:59:52;;;;;;;8.93;5.50;;;27.40;97.50;;;;;;5031942;28;20104;-65
2021/06/09 11:02:24;;;;;;;8.38;4.97;;;27.20;98.00;;;;;;5033281;28;20029;-65
2021/06/09 11:04:55;;;;;;;6.22;4.95;;;27.20;97.40;;;;;;5031782;28;20087;-64
2021/06/09 11:07:37;;;;;;;7.35;5.40;;;27.30;98.00;;;;;;5033251;28;20121;-66
2021/06/09 11:10:18;;;;;;;6.70;4.82;;;27.40;98.70;;;;;;5032683;28;20030;-66
2021/06/09 11:12:48;;;;;;;6.82;5.20;;;27.70;96.90;;;;;;5033115;28;20042;-66
2021/06/09 11:15:16;;;;;;;;;;;27.80;96.40;;;;;;5032857;28;20124;-66
2021/06/09 11:17:47;;;;;;;6.40;4.80;;;27.90;94.90;;;;;;5032911;28;19956;-66
2021/06/09 11:20:30;;;;;;;7.63;4.40;;;28.10;94.10;;;;;;5032909;28;20096;-66
2021/06/09 11:23:12;;;;;;;5.28;4.20;;;28.10;94.00;;;;;;5032507;28;20029;-66
2021/06/09 11:25:47;;;;;;;5.95;4.40;;;28.20;94.10;;;;;;5032483;28;20037;-66
2021/06/09 11:28:32;;;;;;;5.68;4.32;;;28.30;94.20;;;;;;5032607;28;20051;-66
2021/06/09 11:31:03;;;;;;;6.18;4.47;;;28.60;94.10;;;;;;5032262;28;20034;-67
2021/06/09 11:33:42;;;;;;;;;;;28.30;93.90;;;;;;5033308;28;20040;-66
2021/06/09 11:36:31;;;;;;;7.28;4.40;;;28.60;93.80;;;;;;5032285;28;19913;-65
2021/06/09 11:39:04;;;;;;;7.00;4.40;;;29.10;92.60;;;;;;5032190;28;20029;-66
2021/06/09 11:41:42;;;;;;;7.15;4.03;;;29.40;92.40;;;;;;5030454;28;20386;-66
2021/06/09 11:44:28;;;;;;;8.82;4.38;;;29.40;92.00;;;;;;5032352;28;20116;-66
2021/06/09 11:47:17;;;;;;;5.55;3.83;;;28.90;91.70;;;;;;5032329;28;20517;-66
2021/06/09 11:49:47;;;;;;;5.63;4.55;;;29.10;91.80;;;;;;5031358;28;20044;-66
2021/06/09 11:52:13;;;;;;;;;;;29.30;92.30;;;;;;5031216;28;20091;-66
2021/06/09 11:54:39;;;;;;;4.57;3.83;;;29.60;91.40;;;;;;5032152;28;19960;-66
2021/06/09 11:57:18;;;;;;;9.70;7.03;;;29.60;90.90;;;;;;5030556;28;20084;-66
2021/06/09 11:59:47;;;;;;;6.70;5.28;;;29.30;90.90;;;;;;5032083;28;20390;-66
2021/06/09 12:02:17;;;;;;;6.60;4.65;;;29.10;90.90;;;;;;5031865;28;20120;-66
2021/06/09 12:04:51;;;;;;;6.65;3.97;;;28.70;91.30;;;;;;5034643;28;20033;-65
2021/06/09 12:07:29;;;;;;;5.45;4.10;;;28.90;91.10;;;;;;5032124;28;20033;-66
2021/06/09 12:09:59;;;;;;;5.70;3.85;;;28.90;90.10;;;;;;5031036;28;20029;-65
2021/06/09 12:12:28;;;;;;;4.85;3.67;;;29.00;90.30;;;;;;5032129;28;20034;-65
2021/06/09 12:15:00;;;;;;;6.47;3.72;;;29.30;91.00;;;;;;5031850;28;20040;-65
2021/06/09 12:17:30;;;;;;;5.45;4.32;;;29.50;90.30;;;;;;5031905;28;20123;-66
2021/06/09 12:19:59;;;;;;;6.25;3.95;;;29.30;90.50;;;;;;5032177;28;20429;-64
2021/06/09 12:22:29;;;;;;;6.88;3.58;;;29.50;88.50;;;;;;5031929;28;20500;-65
2021/06/09 12:25:12;;;;;;;5.47;4.03;;;29.20;90.10;;;;;;5032154;28;20112;-65
2021/06/09 12:27:57;;;;;;;4.38;3.50;;;29.00;90.20;;;;;;5037159;28;20044;-66
2021/06/09 12:30:23;;;;;;;8.18;6.18;;;29.30;90.30;;;;;;5051459;28;20041;-66
2021/06/09 12:32:51;;;;;;;4.10;3.38;;;29.60;89.60;;;;;;5051916;28;20514;-66
2021/06/09 12:35:19;;;;;;;4.82;3.83;;;29.80;88.90;;;;;;5051819;28;20033;-66
2021/06/09 12:37:53;;;;;;;6.05;4.22;;;30.10;88.50;;;;;;5051236;28;20059;-66
2021/06/09 12:40:24;;;;;;;4.35;3.47;;;30.00;88.40;;;;;;5051240;28;20385;-66
2021/06/09 12:42:58;;;;;;;6.28;3.50;;;30.00;87.70;;;;;;5051605;28;20033;-66
2021/06/09 12:45:26;;;;;;;5.40;3.58;;;30.30;88.00;;;;;;5067015;28;20560;-66
2021/06/09 12:47:53;;;;;;;5.78;3.95;;;30.00;88.40;;;;;;5051761;28;20036;-66
2021/06/09 12:50:33;;;;;;;5.55;3.47;;;30.20;87.70;;;;;;5051560;28;20114;-65
2021/06/09 12:53:13;;;;;;;4.78;3.38;;;30.50;87.80;;;;;;5051591;28;20044;-66
2021/06/09 12:55:43;;;;;;;7.28;3.67;;;29.90;85.80;;;;;;5054074;28;20389;-67